Terminal Aerodrome Forecast
Issued by NWS

Home | Current Version | Previous Version | Text Only | Print | Product List | Glossary On
Versions: 1 2 3 4 5 6 7 8 9 10 11 12 13 14 15 16
000
FTUS44 KLIX 252324
TAFHUM
TAF
KHUM 252324Z 2600/2624 16006KT P6SM BKN035
      TEMPO 2600/2602 VRB10G20KT 2SM TSRA BR BKN030CB
     FM260600 VRB03KT P6SM SCT090 BKN250
     FM261500 16004KT P6SM SCT030 OVC090
     FM261600 13005KT P6SM VCSH SCT025 BKN090
      TEMPO 2617/2621 VRB15G25KT 1SM TSRA BKN025CB BKN090
     FM262200 24009KT P6SM BKN040=

USA.gov is the U.S. government's official web portal to all federal, state and local government web resources and services.